sensor_id;sensor_type;location;lat;lon;timestamp;temperature;humidity
52859;DHT22;38721;53.098;6.596;2023-02-11T00:01:34;6.70;99.90
52859;DHT22;38721;53.098;6.596;2023-02-11T00:04:02;6.80;99.90
52859;DHT22;38721;53.098;6.596;2023-02-11T00:06:31;6.80;99.90
52859;DHT22;38721;53.098;6.596;2023-02-11T00:08:57;6.80;99.90
52859;DHT22;38721;53.098;6.596;2023-02-11T00:11:24;6.80;99.90
52859;DHT22;38721;53.098;6.596;2023-02-11T00:13:51;6.80;99.90
52859;DHT22;38721;53.098;6.596;2023-02-11T00:16:19;6.90;99.90
52859;DHT22;38721;53.098;6.596;2023-02-11T00:18:47;6.80;99.90
52859;DHT22;38721;53.098;6.596;2023-02-11T00:21:20;6.80;99.90
52859;DHT22;38721;53.098;6.596;2023-02-11T00:23:46;6.80;99.90
52859;DHT22;38721;53.098;6.596;2023-02-11T00:26:21;6.90;99.90
52859;DHT22;38721;53.098;6.596;2023-02-11T00:28:48;6.90;99.90
52859;DHT22;38721;53.098;6.596;2023-02-11T00:31:16;6.90;99.90
52859;DHT22;38721;53.098;6.596;2023-02-11T00:33:42;6.90;99.90
52859;DHT22;38721;53.098;6.596;2023-02-11T00:36:22;6.90;99.90
52859;DHT22;38721;53.098;6.596;2023-02-11T00:38:49;6.80;99.90
52859;DHT22;38721;53.098;6.596;2023-02-11T00:41:16;6.80;99.90
52859;DHT22;38721;53.098;6.596;2023-02-11T00:43:42;6.90;99.90
52859;DHT22;38721;53.098;6.596;2023-02-11T00:46:08;6.80;99.90
52859;DHT22;38721;53.098;6.596;2023-02-11T00:48:34;6.80;99.90
52859;DHT22;38721;53.098;6.596;2023-02-11T00:51:01;6.80;99.90
52859;DHT22;38721;53.098;6.596;2023-02-11T00:53:26;6.80;99.90
52859;DHT22;38721;53.098;6.596;2023-02-11T00:55:52;6.80;99.90
52859;DHT22;38721;53.098;6.596;2023-02-11T00:58:18;6.70;99.90
52859;DHT22;38721;53.098;6.596;2023-02-11T01:00:44;6.70;99.90
52859;DHT22;38721;53.098;6.596;2023-02-11T01:03:09;6.80;99.90
52859;DHT22;38721;53.098;6.596;2023-02-11T01:05:35;6.80;99.90
52859;DHT22;38721;53.098;6.596;2023-02-11T01:08:01;6.80;99.90
52859;DHT22;38721;53.098;6.596;2023-02-11T01:10:30;6.70;99.90
52859;DHT22;38721;53.098;6.596;2023-02-11T01:12:56;6.80;99.90
52859;DHT22;38721;53.098;6.596;2023-02-11T01:15:22;6.80;99.90
52859;DHT22;38721;53.098;6.596;2023-02-11T01:17:47;6.80;99.90
52859;DHT22;38721;53.098;6.596;2023-02-11T01:20:20;6.80;99.90
52859;DHT22;38721;53.098;6.596;2023-02-11T01:22:46;6.80;99.90
52859;DHT22;38721;53.098;6.596;2023-02-11T01:25:12;6.80;99.90
52859;DHT22;38721;53.098;6.596;2023-02-11T01:27:38;6.70;99.90
52859;DHT22;38721;53.098;6.596;2023-02-11T01:30:05;6.60;99.90
52859;DHT22;38721;53.098;6.596;2023-02-11T01:32:32;6.60;99.90
52859;DHT22;38721;53.098;6.596;2023-02-11T01:34:57;6.50;99.90
52859;DHT22;38721;53.098;6.596;2023-02-11T01:37:26;6.50;99.90
52859;DHT22;38721;53.098;6.596;2023-02-11T01:39:52;6.60;99.90
52859;DHT22;38721;53.098;6.596;2023-02-11T01:42:21;6.60;99.90
52859;DHT22;38721;53.098;6.596;2023-02-11T01:44:52;6.50;99.90
52859;DHT22;38721;53.098;6.596;2023-02-11T01:47:19;6.50;99.90
52859;DHT22;38721;53.098;6.596;2023-02-11T01:49:48;6.40;99.90
52859;DHT22;38721;53.098;6.596;2023-02-11T01:54:56;6.40;99.90
52859;DHT22;38721;53.098;6.596;2023-02-11T01:57:44;6.40;99.90
52859;DHT22;38721;53.098;6.596;2023-02-11T02:00:21;6.40;99.90
52859;DHT22;38721;53.098;6.596;2023-02-11T02:08:20;6.40;99.90
52859;DHT22;38721;53.098;6.596;2023-02-11T02:10:48;6.50;99.90
52859;DHT22;38721;53.098;6.596;2023-02-11T02:13:17;6.50;99.90
52859;DHT22;38721;53.098;6.596;2023-02-11T02:15:57;6.40;99.90
52859;DHT22;38721;53.098;6.596;2023-02-11T02:21:04;6.50;99.90
52859;DHT22;38721;53.098;6.596;2023-02-11T02:38:33;6.70;99.90
52859;DHT22;38721;53.098;6.596;2023-02-11T02:41:14;6.50;99.90
52859;DHT22;38721;53.098;6.596;2023-02-11T02:43:43;6.70;99.90
52859;DHT22;38721;53.098;6.596;2023-02-11T02:48:38;6.80;99.90
52859;DHT22;38721;53.098;6.596;2023-02-11T02:51:29;6.80;99.90
52859;DHT22;38721;53.098;6.596;2023-02-11T02:54:12;6.80;99.90
52859;DHT22;38721;53.098;6.596;2023-02-11T02:56:49;6.80;99.90
52859;DHT22;38721;53.098;6.596;2023-02-11T03:07:51;6.90;99.90
52859;DHT22;38721;53.098;6.596;2023-02-11T03:10:25;7.00;99.90
52859;DHT22;38721;53.098;6.596;2023-02-11T03:12:54;7.10;99.90
52859;DHT22;38721;53.098;6.596;2023-02-11T03:15:22;7.00;99.90
52859;DHT22;38721;53.098;6.596;2023-02-11T03:17:51;7.10;99.90
52859;DHT22;38721;53.098;6.596;2023-02-11T03:20:21;7.10;99.90
52859;DHT22;38721;53.098;6.596;2023-02-11T03:22:54;7.20;99.90
52859;DHT22;38721;53.098;6.596;2023-02-11T03:25:26;7.30;99.90
52859;DHT22;38721;53.098;6.596;2023-02-11T03:30:46;7.30;99.90
52859;DHT22;38721;53.098;6.596;2023-02-11T03:33:19;7.40;99.90
52859;DHT22;38721;53.098;6.596;2023-02-11T03:35:53;7.40;99.90
52859;DHT22;38721;53.098;6.596;2023-02-11T03:38:23;7.40;99.90
52859;DHT22;38721;53.098;6.596;2023-02-11T03:40:51;7.40;99.90
52859;DHT22;38721;53.098;6.596;2023-02-11T03:43:21;7.40;99.90
52859;DHT22;38721;53.098;6.596;2023-02-11T03:45:51;7.40;99.90
52859;DHT22;38721;53.098;6.596;2023-02-11T03:48:25;7.50;99.90
52859;DHT22;38721;53.098;6.596;2023-02-11T03:50:53;7.50;99.90
52859;DHT22;38721;53.098;6.596;2023-02-11T03:53:22;7.50;99.90
52859;DHT22;38721;53.098;6.596;2023-02-11T03:55:49;7.30;99.90
52859;DHT22;38721;53.098;6.596;2023-02-11T03:58:18;7.50;99.90
52859;DHT22;38721;53.098;6.596;2023-02-11T04:00:44;7.50;99.90
52859;DHT22;38721;53.098;6.596;2023-02-11T04:03:10;7.50;99.90
52859;DHT22;38721;53.098;6.596;2023-02-11T04:05:36;7.60;99.90
52859;DHT22;38721;53.098;6.596;2023-02-11T04:08:03;7.60;99.90
52859;DHT22;38721;53.098;6.596;2023-02-11T04:10:29;7.60;99.90
52859;DHT22;38721;53.098;6.596;2023-02-11T04:12:55;7.60;99.90
52859;DHT22;38721;53.098;6.596;2023-02-11T04:15:20;7.50;99.90
52859;DHT22;38721;53.098;6.596;2023-02-11T04:17:46;7.50;99.90
52859;DHT22;38721;53.098;6.596;2023-02-11T04:20:12;7.60;99.90
52859;DHT22;38721;53.098;6.596;2023-02-11T04:22:38;7.70;99.90
52859;DHT22;38721;53.098;6.596;2023-02-11T04:25:04;7.70;99.90
52859;DHT22;38721;53.098;6.596;2023-02-11T04:27:30;7.60;99.90
52859;DHT22;38721;53.098;6.596;2023-02-11T04:30:00;7.60;99.90
52859;DHT22;38721;53.098;6.596;2023-02-11T04:32:26;7.50;99.90
52859;DHT22;38721;53.098;6.596;2023-02-11T04:34:52;7.60;99.90
52859;DHT22;38721;53.098;6.596;2023-02-11T04:37:19;7.70;99.90
52859;DHT22;38721;53.098;6.596;2023-02-11T04:39:45;7.70;99.90
52859;DHT22;38721;53.098;6.596;2023-02-11T04:42:10;7.60;99.90
52859;DHT22;38721;53.098;6.596;2023-02-11T04:44:36;7.70;99.90
52859;DHT22;38721;53.098;6.596;2023-02-11T04:47:02;7.80;99.90
52859;DHT22;38721;53.098;6.596;2023-02-11T04:49:28;7.60;99.90
52859;DHT22;38721;53.098;6.596;2023-02-11T04:51:53;7.70;99.90
52859;DHT22;38721;53.098;6.596;2023-02-11T04:54:19;7.70;99.90
52859;DHT22;38721;53.098;6.596;2023-02-11T04:56:46;7.80;99.90
52859;DHT22;38721;53.098;6.596;2023-02-11T04:59:12;7.60;99.90
52859;DHT22;38721;53.098;6.596;2023-02-11T05:01:39;7.70;99.90
52859;DHT22;38721;53.098;6.596;2023-02-11T05:04:04;7.60;99.90
52859;DHT22;38721;53.098;6.596;2023-02-11T05:06:30;7.70;99.90
52859;DHT22;38721;53.098;6.596;2023-02-11T05:08:56;7.80;99.90
52859;DHT22;38721;53.098;6.596;2023-02-11T05:11:23;7.70;99.90
52859;DHT22;38721;53.098;6.596;2023-02-11T05:13:49;7.80;99.90
52859;DHT22;38721;53.098;6.596;2023-02-11T05:16:16;7.60;99.90
52859;DHT22;38721;53.098;6.596;2023-02-11T05:18:43;7.80;99.90
52859;DHT22;38721;53.098;6.596;2023-02-11T05:21:15;7.60;99.90
52859;DHT22;38721;53.098;6.596;2023-02-11T05:23:41;7.70;99.90
52859;DHT22;38721;53.098;6.596;2023-02-11T05:26:07;7.70;99.90
52859;DHT22;38721;53.098;6.596;2023-02-11T05:28:34;7.60;99.90
52859;DHT22;38721;53.098;6.596;2023-02-11T05:31:03;7.70;99.90
52859;DHT22;38721;53.098;6.596;2023-02-11T05:33:29;7.50;99.90
52859;DHT22;38721;53.098;6.596;2023-02-11T05:36:02;7.60;99.90
52859;DHT22;38721;53.098;6.596;2023-02-11T05:38:28;7.60;99.90
52859;DHT22;38721;53.098;6.596;2023-02-11T05:40:54;7.50;99.90
52859;DHT22;38721;53.098;6.596;2023-02-11T05:43:20;7.50;99.90
52859;DHT22;38721;53.098;6.596;2023-02-11T05:45:46;7.40;99.90
52859;DHT22;38721;53.098;6.596;2023-02-11T05:48:11;7.40;99.90
52859;DHT22;38721;53.098;6.596;2023-02-11T05:50:37;7.50;99.90
52859;DHT22;38721;53.098;6.596;2023-02-11T05:53:03;7.50;99.90
52859;DHT22;38721;53.098;6.596;2023-02-11T05:55:30;7.50;99.90
52859;DHT22;38721;53.098;6.596;2023-02-11T05:57:56;7.60;99.90
52859;DHT22;38721;53.098;6.596;2023-02-11T06:00:22;7.50;99.90
52859;DHT22;38721;53.098;6.596;2023-02-11T06:02:47;7.50;99.90
52859;DHT22;38721;53.098;6.596;2023-02-11T06:05:13;7.50;99.90
52859;DHT22;38721;53.098;6.596;2023-02-11T06:07:39;7.50;99.90
52859;DHT22;38721;53.098;6.596;2023-02-11T06:10:05;7.40;99.90
52859;DHT22;38721;53.098;6.596;2023-02-11T06:12:31;7.60;99.90
52859;DHT22;38721;53.098;6.596;2023-02-11T06:14:57;7.60;99.90
52859;DHT22;38721;53.098;6.596;2023-02-11T06:17:22;7.40;99.90
52859;DHT22;38721;53.098;6.596;2023-02-11T06:19:50;7.40;99.90
52859;DHT22;38721;53.098;6.596;2023-02-11T06:22:16;7.50;99.90
52859;DHT22;38721;53.098;6.596;2023-02-11T06:24:41;7.50;99.90
52859;DHT22;38721;53.098;6.596;2023-02-11T06:27:07;7.30;99.90
52859;DHT22;38721;53.098;6.596;2023-02-11T06:29:32;7.30;99.90
52859;DHT22;38721;53.098;6.596;2023-02-11T06:31:58;7.50;99.90
52859;DHT22;38721;53.098;6.596;2023-02-11T06:34:24;7.40;99.90
52859;DHT22;38721;53.098;6.596;2023-02-11T06:36:50;7.40;99.90
52859;DHT22;38721;53.098;6.596;2023-02-11T06:39:19;7.30;99.90
52859;DHT22;38721;53.098;6.596;2023-02-11T06:41:44;7.50;99.90
52859;DHT22;38721;53.098;6.596;2023-02-11T06:44:10;7.30;99.90
52859;DHT22;38721;53.098;6.596;2023-02-11T06:46:35;7.20;99.90
52859;DHT22;38721;53.098;6.596;2023-02-11T06:49:01;7.30;99.90
52859;DHT22;38721;53.098;6.596;2023-02-11T06:51:27;7.20;99.90
52859;DHT22;38721;53.098;6.596;2023-02-11T06:53:53;7.20;99.90
52859;DHT22;38721;53.098;6.596;2023-02-11T06:56:21;7.10;99.90
52859;DHT22;38721;53.098;6.596;2023-02-11T06:58:51;7.10;99.90
52859;DHT22;38721;53.098;6.596;2023-02-11T07:01:19;7.10;99.90
52859;DHT22;38721;53.098;6.596;2023-02-11T07:03:44;7.30;99.90
52859;DHT22;38721;53.098;6.596;2023-02-11T07:06:16;7.30;99.90
52859;DHT22;38721;53.098;6.596;2023-02-11T07:08:46;7.30;99.90
52859;DHT22;38721;53.098;6.596;2023-02-11T07:11:20;7.30;99.90
52859;DHT22;38721;53.098;6.596;2023-02-11T07:13:49;7.30;99.90
52859;DHT22;38721;53.098;6.596;2023-02-11T07:16:17;7.10;99.90
52859;DHT22;38721;53.098;6.596;2023-02-11T07:18:44;7.10;99.90
52859;DHT22;38721;53.098;6.596;2023-02-11T07:21:15;7.30;99.90
52859;DHT22;38721;53.098;6.596;2023-02-11T07:23:41;7.30;99.90
52859;DHT22;38721;53.098;6.596;2023-02-11T07:26:09;7.40;99.90
52859;DHT22;38721;53.098;6.596;2023-02-11T07:28:36;7.30;99.90
52859;DHT22;38721;53.098;6.596;2023-02-11T07:31:13;7.30;99.90
52859;DHT22;38721;53.098;6.596;2023-02-11T07:33:40;7.30;99.90
52859;DHT22;38721;53.098;6.596;2023-02-11T07:36:07;7.30;99.90
52859;DHT22;38721;53.098;6.596;2023-02-11T07:38:35;7.40;99.90
52859;DHT22;38721;53.098;6.596;2023-02-11T07:41:03;7.50;99.90
52859;DHT22;38721;53.098;6.596;2023-02-11T07:43:30;7.40;99.90
52859;DHT22;38721;53.098;6.596;2023-02-11T07:45:58;7.60;99.90
52859;DHT22;38721;53.098;6.596;2023-02-11T07:48:24;7.50;99.90
52859;DHT22;38721;53.098;6.596;2023-02-11T07:50:50;7.60;99.90
52859;DHT22;38721;53.098;6.596;2023-02-11T07:53:15;7.60;99.90
52859;DHT22;38721;53.098;6.596;2023-02-11T07:55:42;7.60;99.90
52859;DHT22;38721;53.098;6.596;2023-02-11T07:58:08;7.70;99.90
52859;DHT22;38721;53.098;6.596;2023-02-11T08:00:33;7.60;99.90
52859;DHT22;38721;53.098;6.596;2023-02-11T08:03:02;7.80;99.90
52859;DHT22;38721;53.098;6.596;2023-02-11T08:05:28;7.70;99.90
52859;DHT22;38721;53.098;6.596;2023-02-11T08:07:54;7.90;99.90
52859;DHT22;38721;53.098;6.596;2023-02-11T08:10:20;7.80;99.90
52859;DHT22;38721;53.098;6.596;2023-02-11T08:12:47;7.80;99.90
52859;DHT22;38721;53.098;6.596;2023-02-11T08:15:13;7.70;99.90
52859;DHT22;38721;53.098;6.596;2023-02-11T08:17:38;7.70;99.90
52859;DHT22;38721;53.098;6.596;2023-02-11T08:20:05;7.90;99.90
52859;DHT22;38721;53.098;6.596;2023-02-11T08:22:32;7.80;99.90
52859;DHT22;38721;53.098;6.596;2023-02-11T08:24:58;7.90;99.90
52859;DHT22;38721;53.098;6.596;2023-02-11T08:27:24;7.90;99.90
52859;DHT22;38721;53.098;6.596;2023-02-11T08:29:51;7.70;99.90
52859;DHT22;38721;53.098;6.596;2023-02-11T08:32:17;7.80;99.90
52859;DHT22;38721;53.098;6.596;2023-02-11T08:34:43;7.70;99.90
52859;DHT22;38721;53.098;6.596;2023-02-11T08:37:09;7.90;99.90
52859;DHT22;38721;53.098;6.596;2023-02-11T08:39:35;7.80;99.90
52859;DHT22;38721;53.098;6.596;2023-02-11T08:42:01;7.90;99.90
52859;DHT22;38721;53.098;6.596;2023-02-11T08:44:26;7.90;99.90
52859;DHT22;38721;53.098;6.596;2023-02-11T08:46:52;7.80;99.90
52859;DHT22;38721;53.098;6.596;2023-02-11T08:49:18;8.00;99.90
52859;DHT22;38721;53.098;6.596;2023-02-11T08:51:46;7.90;99.90
52859;DHT22;38721;53.098;6.596;2023-02-11T08:54:13;8.00;99.90
52859;DHT22;38721;53.098;6.596;2023-02-11T08:56:39;7.90;99.90
52859;DHT22;38721;53.098;6.596;2023-02-11T08:59:06;7.90;99.90
52859;DHT22;38721;53.098;6.596;2023-02-11T09:01:32;8.00;99.90
52859;DHT22;38721;53.098;6.596;2023-02-11T09:03:58;7.90;99.90
52859;DHT22;38721;53.098;6.596;2023-02-11T09:06:26;8.10;99.90
52859;DHT22;38721;53.098;6.596;2023-02-11T09:08:54;8.10;99.90
52859;DHT22;38721;53.098;6.596;2023-02-11T09:11:23;8.00;99.90
52859;DHT22;38721;53.098;6.596;2023-02-11T09:13:49;8.10;99.90
52859;DHT22;38721;53.098;6.596;2023-02-11T09:16:21;8.20;99.90
52859;DHT22;38721;53.098;6.596;2023-02-11T09:18:47;8.20;99.90
52859;DHT22;38721;53.098;6.596;2023-02-11T09:21:14;8.20;99.90
52859;DHT22;38721;53.098;6.596;2023-02-11T09:23:40;8.30;99.90
52859;DHT22;38721;53.098;6.596;2023-02-11T09:26:16;8.30;99.90
52859;DHT22;38721;53.098;6.596;2023-02-11T09:28:45;8.30;99.90
52859;DHT22;38721;53.098;6.596;2023-02-11T09:31:14;8.40;99.90
52859;DHT22;38721;53.098;6.596;2023-02-11T09:33:44;8.20;99.90
52859;DHT22;38721;53.098;6.596;2023-02-11T09:36:19;8.40;99.90
52859;DHT22;38721;53.098;6.596;2023-02-11T09:38:45;8.30;99.90
52859;DHT22;38721;53.098;6.596;2023-02-11T09:44:01;8.50;99.90
52859;DHT22;38721;53.098;6.596;2023-02-11T09:46:35;8.50;99.90
52859;DHT22;38721;53.098;6.596;2023-02-11T09:49:02;8.60;99.90
52859;DHT22;38721;53.098;6.596;2023-02-11T09:52:12;8.50;99.90
52859;DHT22;38721;53.098;6.596;2023-02-11T09:57:01;8.70;99.90
52859;DHT22;38721;53.098;6.596;2023-02-11T09:59:27;8.70;99.90
52859;DHT22;38721;53.098;6.596;2023-02-11T10:02:01;8.80;99.90
52859;DHT22;38721;53.098;6.596;2023-02-11T10:07:37;9.00;99.90
52859;DHT22;38721;53.098;6.596;2023-02-11T10:13:24;8.90;99.90
52859;DHT22;38721;53.098;6.596;2023-02-11T10:16:28;8.80;99.90
52859;DHT22;38721;53.098;6.596;2023-02-11T10:19:14;8.80;99.90
52859;DHT22;38721;53.098;6.596;2023-02-11T10:22:15;8.80;99.90
52859;DHT22;38721;53.098;6.596;2023-02-11T10:24:53;8.90;99.90
52859;DHT22;38721;53.098;6.596;2023-02-11T10:27:25;9.20;99.90
52859;DHT22;38721;53.098;6.596;2023-02-11T10:29:58;9.10;99.90
52859;DHT22;38721;53.098;6.596;2023-02-11T10:35:02;9.20;99.90
52859;DHT22;38721;53.098;6.596;2023-02-11T10:37:29;9.20;99.90
52859;DHT22;38721;53.098;6.596;2023-02-11T10:39:55;9.30;99.90
52859;DHT22;38721;53.098;6.596;2023-02-11T10:42:20;9.30;99.90
52859;DHT22;38721;53.098;6.596;2023-02-11T10:45:02;9.40;99.90
52859;DHT22;38721;53.098;6.596;2023-02-11T10:47:32;9.50;99.90
52859;DHT22;38721;53.098;6.596;2023-02-11T10:49:59;9.50;99.90
52859;DHT22;38721;53.098;6.596;2023-02-11T10:52:29;9.50;99.90
52859;DHT22;38721;53.098;6.596;2023-02-11T10:55:16;9.60;99.90
52859;DHT22;38721;53.098;6.596;2023-02-11T10:57:56;9.60;99.90
52859;DHT22;38721;53.098;6.596;2023-02-11T11:02:59;9.60;99.90
52859;DHT22;38721;53.098;6.596;2023-02-11T11:05:32;9.60;99.90
52859;DHT22;38721;53.098;6.596;2023-02-11T11:08:01;9.70;99.90
52859;DHT22;38721;53.098;6.596;2023-02-11T11:10:37;9.70;99.90
52859;DHT22;38721;53.098;6.596;2023-02-11T11:16:15;9.70;99.90
52859;DHT22;38721;53.098;6.596;2023-02-11T11:18:44;9.80;99.90
52859;DHT22;38721;53.098;6.596;2023-02-11T11:21:21;9.70;99.90
52859;DHT22;38721;53.098;6.596;2023-02-11T11:23:56;9.80;99.90
52859;DHT22;38721;53.098;6.596;2023-02-11T11:26:24;9.70;99.90
52859;DHT22;38721;53.098;6.596;2023-02-11T11:28:58;9.70;99.90
52859;DHT22;38721;53.098;6.596;2023-02-11T11:31:33;9.80;99.90
52859;DHT22;38721;53.098;6.596;2023-02-11T11:34:20;9.80;99.90
52859;DHT22;38721;53.098;6.596;2023-02-11T11:36:47;9.80;99.90
52859;DHT22;38721;53.098;6.596;2023-02-11T11:39:19;9.80;99.90
52859;DHT22;38721;53.098;6.596;2023-02-11T11:41:54;9.80;99.90
52859;DHT22;38721;53.098;6.596;2023-02-11T11:47:06;9.80;99.90
52859;DHT22;38721;53.098;6.596;2023-02-11T11:55:20;9.90;99.90
52859;DHT22;38721;53.098;6.596;2023-02-11T11:57:47;9.90;99.90
52859;DHT22;38721;53.098;6.596;2023-02-11T12:03:30;10.00;99.90
52859;DHT22;38721;53.098;6.596;2023-02-11T12:14:42;10.10;99.90
52859;DHT22;38721;53.098;6.596;2023-02-11T12:17:36;10.00;99.90
52859;DHT22;38721;53.098;6.596;2023-02-11T12:31:39;10.10;99.90
52859;DHT22;38721;53.098;6.596;2023-02-11T12:57:17;10.20;99.90
52859;DHT22;38721;53.098;6.596;2023-02-11T13:05:31;10.20;99.90
52859;DHT22;38721;53.098;6.596;2023-02-11T13:11:11;10.40;99.90
52859;DHT22;38721;53.098;6.596;2023-02-11T13:13:56;10.40;99.90
52859;DHT22;38721;53.098;6.596;2023-02-11T13:16:44;10.50;99.90
52859;DHT22;38721;53.098;6.596;2023-02-11T13:19:47;10.50;99.90
52859;DHT22;38721;53.098;6.596;2023-02-11T13:22:43;10.50;99.90
52859;DHT22;38721;53.098;6.596;2023-02-11T13:25:41;10.40;99.90
52859;DHT22;38721;53.098;6.596;2023-02-11T13:28:28;10.40;99.90
52859;DHT22;38721;53.098;6.596;2023-02-11T13:30:55;10.40;99.90
52859;DHT22;38721;53.098;6.596;2023-02-11T13:33:34;10.30;99.90
52859;DHT22;38721;53.098;6.596;2023-02-11T13:38:30;10.20;99.90
52859;DHT22;38721;53.098;6.596;2023-02-11T13:43:41;10.10;99.90
52859;DHT22;38721;53.098;6.596;2023-02-11T13:46:10;10.10;99.90
52859;DHT22;38721;53.098;6.596;2023-02-11T13:48:54;10.00;99.90
52859;DHT22;38721;53.098;6.596;2023-02-11T13:51:53;10.00;99.90
52859;DHT22;38721;53.098;6.596;2023-02-11T13:54:36;10.00;99.90
52859;DHT22;38721;53.098;6.596;2023-02-11T13:57:26;10.00;99.90
52859;DHT22;38721;53.098;6.596;2023-02-11T14:00:01;10.00;99.90
52859;DHT22;38721;53.098;6.596;2023-02-11T14:02:35;9.90;99.90
52859;DHT22;38721;53.098;6.596;2023-02-11T14:05:27;10.00;99.90
52859;DHT22;38721;53.098;6.596;2023-02-11T14:08:15;10.00;99.90
52859;DHT22;38721;53.098;6.596;2023-02-11T14:14:00;10.00;99.90
52859;DHT22;38721;53.098;6.596;2023-02-11T14:16:24;10.00;99.90
52859;DHT22;38721;53.098;6.596;2023-02-11T14:35:37;9.80;99.90
52859;DHT22;38721;53.098;6.596;2023-02-11T14:38:18;9.90;99.90
52859;DHT22;38721;53.098;6.596;2023-02-11T14:40:55;9.80;99.90
52859;DHT22;38721;53.098;6.596;2023-02-11T14:43:30;9.80;99.90
52859;DHT22;38721;53.098;6.596;2023-02-11T14:46:00;9.70;99.90
52859;DHT22;38721;53.098;6.596;2023-02-11T14:48:30;9.70;99.90
52859;DHT22;38721;53.098;6.596;2023-02-11T14:51:07;9.70;99.90
52859;DHT22;38721;53.098;6.596;2023-02-11T14:53:35;9.70;99.90
52859;DHT22;38721;53.098;6.596;2023-02-11T14:56:03;9.60;99.90
52859;DHT22;38721;53.098;6.596;2023-02-11T14:58:45;9.60;99.90
52859;DHT22;38721;53.098;6.596;2023-02-11T15:01:30;9.60;99.90
52859;DHT22;38721;53.098;6.596;2023-02-11T15:04:05;9.70;99.90
52859;DHT22;38721;53.098;6.596;2023-02-11T15:06:37;9.70;99.90
52859;DHT22;38721;53.098;6.596;2023-02-11T15:11:33;9.60;99.90
52859;DHT22;38721;53.098;6.596;2023-02-11T15:14:28;9.60;99.90
52859;DHT22;38721;53.098;6.596;2023-02-11T15:17:01;9.50;99.90
52859;DHT22;38721;53.098;6.596;2023-02-11T15:19:54;9.50;99.90
52859;DHT22;38721;53.098;6.596;2023-02-11T15:22:28;9.60;99.90
52859;DHT22;38721;53.098;6.596;2023-02-11T15:25:15;9.50;99.90
52859;DHT22;38721;53.098;6.596;2023-02-11T15:27:43;9.50;99.90
52859;DHT22;38721;53.098;6.596;2023-02-11T15:32:58;9.50;99.90
52859;DHT22;38721;53.098;6.596;2023-02-11T15:37:57;9.50;99.90
52859;DHT22;38721;53.098;6.596;2023-02-11T15:40:29;9.50;99.90
52859;DHT22;38721;53.098;6.596;2023-02-11T15:43:05;9.50;99.90
52859;DHT22;38721;53.098;6.596;2023-02-11T15:45:43;9.50;99.90
52859;DHT22;38721;53.098;6.596;2023-02-11T15:51:21;9.40;99.90
52859;DHT22;38721;53.098;6.596;2023-02-11T15:53:55;9.50;99.90
52859;DHT22;38721;53.098;6.596;2023-02-11T15:56:29;9.30;99.90
52859;DHT22;38721;53.098;6.596;2023-02-11T15:58:59;9.40;99.90
52859;DHT22;38721;53.098;6.596;2023-02-11T16:01:35;9.40;99.90
52859;DHT22;38721;53.098;6.596;2023-02-11T16:04:03;9.40;99.90
52859;DHT22;38721;53.098;6.596;2023-02-11T16:06:38;9.30;99.90
52859;DHT22;38721;53.098;6.596;2023-02-11T16:11:55;9.30;99.90
52859;DHT22;38721;53.098;6.596;2023-02-11T16:19:21;9.20;99.90
52859;DHT22;38721;53.098;6.596;2023-02-11T16:21:48;9.20;99.90
52859;DHT22;38721;53.098;6.596;2023-02-11T16:24:21;9.20;99.90
52859;DHT22;38721;53.098;6.596;2023-02-11T16:26:54;9.20;99.90
52859;DHT22;38721;53.098;6.596;2023-02-11T16:29:25;9.10;99.90
52859;DHT22;38721;53.098;6.596;2023-02-11T16:31:53;9.10;99.90
52859;DHT22;38721;53.098;6.596;2023-02-11T16:34:31;9.20;99.90
52859;DHT22;38721;53.098;6.596;2023-02-11T16:36:57;9.10;99.90
52859;DHT22;38721;53.098;6.596;2023-02-11T16:39:23;9.10;99.90
52859;DHT22;38721;53.098;6.596;2023-02-11T16:41:50;9.10;99.90
52859;DHT22;38721;53.098;6.596;2023-02-11T16:44:16;9.10;99.90
52859;DHT22;38721;53.098;6.596;2023-02-11T16:46:43;9.00;99.90
52859;DHT22;38721;53.098;6.596;2023-02-11T16:49:13;9.00;99.90
52859;DHT22;38721;53.098;6.596;2023-02-11T16:51:40;9.00;99.90
52859;DHT22;38721;53.098;6.596;2023-02-11T16:54:12;9.00;99.90
52859;DHT22;38721;53.098;6.596;2023-02-11T16:56:39;9.10;99.90
52859;DHT22;38721;53.098;6.596;2023-02-11T16:59:05;9.00;99.90
52859;DHT22;38721;53.098;6.596;2023-02-11T17:01:31;9.00;99.90
52859;DHT22;38721;53.098;6.596;2023-02-11T17:03:57;9.00;99.90
52859;DHT22;38721;53.098;6.596;2023-02-11T17:06:23;9.00;99.90
52859;DHT22;38721;53.098;6.596;2023-02-11T17:08:48;9.00;99.90
52859;DHT22;38721;53.098;6.596;2023-02-11T17:11:14;9.00;99.90
52859;DHT22;38721;53.098;6.596;2023-02-11T17:13:45;9.00;99.90
52859;DHT22;38721;53.098;6.596;2023-02-11T17:16:21;9.00;99.90
52859;DHT22;38721;53.098;6.596;2023-02-11T17:18:48;8.90;99.90
52859;DHT22;38721;53.098;6.596;2023-02-11T17:21:14;8.90;99.90
52859;DHT22;38721;53.098;6.596;2023-02-11T17:23:40;8.90;99.90
52859;DHT22;38721;53.098;6.596;2023-02-11T17:26:06;8.90;99.90
52859;DHT22;38721;53.098;6.596;2023-02-11T17:28:32;8.90;99.90
52859;DHT22;38721;53.098;6.596;2023-02-11T17:30:59;8.90;99.90
52859;DHT22;38721;53.098;6.596;2023-02-11T17:33:25;8.80;99.90
52859;DHT22;38721;53.098;6.596;2023-02-11T17:35:51;8.80;99.90
52859;DHT22;38721;53.098;6.596;2023-02-11T17:38:16;8.70;99.90
52859;DHT22;38721;53.098;6.596;2023-02-11T17:40:42;8.80;99.90
52859;DHT22;38721;53.098;6.596;2023-02-11T17:43:08;8.70;99.90
52859;DHT22;38721;53.098;6.596;2023-02-11T17:45:34;8.70;99.90
52859;DHT22;38721;53.098;6.596;2023-02-11T17:48:07;8.70;99.90
52859;DHT22;38721;53.098;6.596;2023-02-11T17:50:36;8.60;99.90
52859;DHT22;38721;53.098;6.596;2023-02-11T17:53:01;8.60;99.90
52859;DHT22;38721;53.098;6.596;2023-02-11T17:55:27;8.60;99.90
52859;DHT22;38721;53.098;6.596;2023-02-11T17:57:53;8.60;99.90
52859;DHT22;38721;53.098;6.596;2023-02-11T18:00:20;8.60;99.90
52859;DHT22;38721;53.098;6.596;2023-02-11T18:02:46;8.60;99.90
52859;DHT22;38721;53.098;6.596;2023-02-11T18:05:12;8.60;99.90
52859;DHT22;38721;53.098;6.596;2023-02-11T18:07:39;8.40;99.90
52859;DHT22;38721;53.098;6.596;2023-02-11T18:10:05;8.40;99.90
52859;DHT22;38721;53.098;6.596;2023-02-11T18:12:31;8.30;99.90
52859;DHT22;38721;53.098;6.596;2023-02-11T18:14:57;8.20;99.90
52859;DHT22;38721;53.098;6.596;2023-02-11T18:17:23;8.30;99.90
52859;DHT22;38721;53.098;6.596;2023-02-11T18:19:54;8.10;99.90
52859;DHT22;38721;53.098;6.596;2023-02-11T18:22:21;8.10;99.90
52859;DHT22;38721;53.098;6.596;2023-02-11T18:24:51;8.20;99.90
52859;DHT22;38721;53.098;6.596;2023-02-11T18:27:17;8.00;99.90
52859;DHT22;38721;53.098;6.596;2023-02-11T18:29:43;7.90;99.90
52859;DHT22;38721;53.098;6.596;2023-02-11T18:32:09;8.00;99.90
52859;DHT22;38721;53.098;6.596;2023-02-11T18:34:34;8.00;99.90
52859;DHT22;38721;53.098;6.596;2023-02-11T18:37:00;7.90;99.90
52859;DHT22;38721;53.098;6.596;2023-02-11T18:39:26;7.90;99.90
52859;DHT22;38721;53.098;6.596;2023-02-11T18:41:54;7.90;99.90
52859;DHT22;38721;53.098;6.596;2023-02-11T18:44:21;7.80;99.90
52859;DHT22;38721;53.098;6.596;2023-02-11T18:46:50;7.90;99.90
52859;DHT22;38721;53.098;6.596;2023-02-11T18:49:16;8.00;99.90